createdAt,value
2018-03-19T00:00:54.477Z,987.03
2018-03-19T00:01:54.447Z,987.02
2018-03-19T00:02:54.436Z,986.93
2018-03-19T00:03:54.396Z,986.99
2018-03-19T00:04:54.376Z,987.02
2018-03-19T00:05:54.331Z,987.01
2018-03-19T00:06:54.304Z,986.98
2018-03-19T00:07:54.285Z,986.92
2018-03-19T00:08:54.261Z,987.02
2018-03-19T00:09:54.228Z,986.99
2018-03-19T00:10:54.220Z,986.96
2018-03-19T00:11:54.182Z,986.99
2018-03-19T00:12:54.166Z,986.98
2018-03-19T00:13:54.112Z,986.98
2018-03-19T00:14:54.092Z,986.96
2018-03-19T00:15:54.056Z,986.96
2018-03-19T00:16:54.028Z,987.02
2018-03-19T00:17:54.008Z,986.95
2018-03-19T00:18:54.000Z,986.93
2018-03-19T00:19:53.946Z,986.94
2018-03-19T00:20:53.922Z,986.94
2018-03-19T00:21:53.899Z,986.91
2018-03-19T00:22:53.879Z,986.96
2018-03-19T00:23:53.844Z,986.95
2018-03-19T00:24:53.817Z,986.92
2018-03-19T00:25:53.780Z,986.95
2018-03-19T00:26:53.766Z,986.93
2018-03-19T00:27:53.764Z,986.96
2018-03-19T00:28:53.737Z,986.93
2018-03-19T00:29:53.702Z,986.98
2018-03-19T00:30:53.655Z,986.96
2018-03-19T00:31:53.641Z,986.95
2018-03-19T00:32:53.599Z,986.91
2018-03-19T00:33:53.580Z,986.88
2018-03-19T00:34:53.567Z,986.95
2018-03-19T00:35:53.561Z,986.89
2018-03-19T00:36:53.486Z,986.92
2018-03-19T00:37:53.460Z,986.93
2018-03-19T00:38:53.521Z,986.89
2018-03-19T00:39:53.437Z,986.93
2018-03-19T00:40:53.449Z,986.89
2018-03-19T00:41:53.351Z,986.88
2018-03-19T00:42:53.344Z,986.92
2018-03-19T00:43:53.303Z,986.89
2018-03-19T00:44:53.276Z,986.88
2018-03-19T00:45:53.240Z,986.85
2018-03-19T00:46:53.222Z,986.91
2018-03-19T00:47:53.185Z,986.87
2018-03-19T00:48:53.181Z,986.79
2018-03-19T00:49:53.152Z,986.78
2018-03-19T00:50:53.131Z,986.82
2018-03-19T00:51:53.107Z,986.79
2018-03-19T00:52:53.044Z,986.75
2018-03-19T00:53:53.017Z,986.76
2018-03-19T00:54:53.033Z,986.74
2018-03-19T00:55:52.961Z,986.70
2018-03-19T00:56:52.945Z,986.69
2018-03-19T00:57:52.947Z,986.69
2018-03-19T00:58:52.886Z,986.68
2018-03-19T00:59:52.872Z,986.73
2018-03-19T01:00:52.831Z,986.69
2018-03-19T01:01:52.822Z,986.66
2018-03-19T01:02:52.787Z,986.60
2018-03-19T01:03:52.764Z,986.61
2018-03-19T01:04:52.740Z,986.60
2018-03-19T01:05:52.695Z,986.64
2018-03-19T01:06:52.672Z,986.63
2018-03-19T01:07:52.633Z,986.63
2018-03-19T01:08:52.612Z,986.58
2018-03-19T01:09:52.577Z,986.55
2018-03-19T01:10:52.552Z,986.58
2018-03-19T01:11:52.529Z,986.56
2018-03-19T01:12:52.497Z,986.56
2018-03-19T01:13:52.496Z,986.58
2018-03-19T01:14:52.455Z,986.56
2018-03-19T01:15:52.419Z,986.59
2018-03-19T01:16:52.391Z,986.53
2018-03-19T01:17:52.367Z,986.55
2018-03-19T01:18:52.341Z,986.54
2018-03-19T01:19:52.323Z,986.57
2018-03-19T01:20:52.283Z,986.53
2018-03-19T01:21:52.252Z,986.56
2018-03-19T01:22:52.233Z,986.56
2018-03-19T01:23:52.224Z,986.54
2018-03-19T01:24:52.168Z,986.67
2018-03-19T01:25:52.167Z,986.56
2018-03-19T01:26:52.122Z,986.56
2018-03-19T01:27:52.091Z,986.59
2018-03-19T01:28:52.079Z,986.56
2018-03-19T01:29:52.027Z,986.52
2018-03-19T01:30:52.032Z,986.57
2018-03-19T01:31:51.975Z,986.54
2018-03-19T01:32:51.971Z,986.55
2018-03-19T01:33:51.918Z,986.56
2018-03-19T01:34:51.898Z,986.55
2018-03-19T01:35:51.866Z,986.59
2018-03-19T01:36:51.877Z,986.49
2018-03-19T01:37:51.905Z,986.51
2018-03-19T01:38:51.790Z,986.52
2018-03-19T01:39:51.764Z,986.47
2018-03-19T01:40:51.727Z,986.50
2018-03-19T01:41:51.707Z,986.51
2018-03-19T01:42:51.724Z,986.45
2018-03-19T01:43:51.656Z,986.49
2018-03-19T01:44:51.619Z,986.45
2018-03-19T01:45:51.617Z,986.46
2018-03-19T01:46:51.695Z,986.45
2018-03-19T01:47:51.539Z,986.41
2018-03-19T01:48:51.520Z,986.44
2018-03-19T01:49:51.492Z,986.36
2018-03-19T01:50:51.491Z,986.41
2018-03-19T01:51:51.438Z,986.42
2018-03-19T01:52:51.398Z,986.44
2018-03-19T01:53:51.390Z,986.41
2018-03-19T01:54:51.386Z,986.39
2018-03-19T01:55:51.319Z,986.36
2018-03-19T01:56:51.290Z,986.35
2018-03-19T01:57:51.309Z,986.34
2018-03-19T01:58:51.232Z,986.38
2018-03-19T01:59:51.210Z,986.32
2018-03-19T02:00:51.187Z,986.33
2018-03-19T02:01:51.174Z,986.30
2018-03-19T02:02:51.135Z,986.29
2018-03-19T02:03:51.151Z,986.31
2018-03-19T02:04:51.075Z,986.31
2018-03-19T02:05:51.045Z,986.31
2018-03-19T02:06:51.014Z,986.40
2018-03-19T02:07:51.010Z,986.28
2018-03-19T02:08:51.019Z,986.36
2018-03-19T02:09:50.942Z,986.39
2018-03-19T02:10:50.918Z,986.34
2018-03-19T02:11:50.884Z,986.30
2018-03-19T02:12:50.845Z,986.30
2018-03-19T02:13:50.836Z,986.33
2018-03-19T02:14:50.796Z,986.27
2018-03-19T02:15:50.804Z,986.30
2018-03-19T02:16:50.776Z,986.30
2018-03-19T02:17:50.710Z,986.25
2018-03-19T02:18:50.687Z,986.26
2018-03-19T02:19:51.230Z,986.29
2018-03-19T02:20:50.650Z,986.33
2018-03-19T02:21:50.596Z,986.25
2018-03-19T02:22:50.574Z,986.31
2018-03-19T02:23:50.560Z,986.35
2018-03-19T02:24:50.543Z,986.29
2018-03-19T02:25:50.502Z,986.34
2018-03-19T02:26:50.467Z,986.33
2018-03-19T02:27:50.438Z,986.31
2018-03-19T02:28:50.449Z,986.32
2018-03-19T02:29:50.382Z,986.29
2018-03-19T02:30:50.371Z,986.33
2018-03-19T02:31:50.331Z,986.30
2018-03-19T02:32:50.311Z,986.30
2018-03-19T02:33:50.269Z,986.23
2018-03-19T02:34:50.250Z,986.25
2018-03-19T02:35:50.215Z,986.24
2018-03-19T02:36:50.209Z,986.28
2018-03-19T02:37:50.189Z,986.29
2018-03-19T02:38:50.133Z,986.31
2018-03-19T02:39:50.188Z,986.32
2018-03-19T02:40:50.090Z,986.29
2018-03-19T02:41:50.079Z,986.28
2018-03-19T02:42:50.057Z,986.36
2018-03-19T02:43:50.054Z,986.32
2018-03-19T02:44:49.986Z,986.35
2018-03-19T02:45:49.947Z,986.35
2018-03-19T02:46:49.920Z,986.33
2018-03-19T02:47:49.882Z,986.35
2018-03-19T02:48:49.855Z,986.34
2018-03-19T02:49:49.853Z,986.38
2018-03-19T02:50:49.866Z,986.39
2018-03-19T02:51:49.783Z,986.38
2018-03-19T02:52:49.759Z,986.34
2018-03-19T02:53:49.754Z,986.36
2018-03-19T02:54:49.705Z,986.38
2018-03-19T02:55:49.675Z,986.41
2018-03-19T02:56:49.635Z,986.36
2018-03-19T02:57:49.598Z,986.36
2018-03-19T02:58:49.582Z,986.41
2018-03-19T02:59:49.579Z,986.38
2018-03-19T03:00:49.538Z,986.42
2018-03-19T03:01:49.502Z,986.47
2018-03-19T03:02:49.469Z,986.45
2018-03-19T03:03:49.443Z,986.45
2018-03-19T03:04:49.416Z,986.45
2018-03-19T03:05:49.430Z,986.48
2018-03-19T03:06:49.346Z,986.52
2018-03-19T03:07:49.368Z,986.52
2018-03-19T03:08:49.320Z,986.55
2018-03-19T03:09:49.283Z,986.56
2018-03-19T03:10:49.250Z,986.59
2018-03-19T03:11:49.227Z,986.62
2018-03-19T03:12:49.198Z,986.62
2018-03-19T03:13:49.183Z,986.64
2018-03-19T03:14:49.149Z,986.66
2018-03-19T03:15:49.122Z,986.64
2018-03-19T03:16:49.092Z,986.64
2018-03-19T03:17:49.078Z,986.67
2018-03-19T03:18:49.028Z,986.69
2018-03-19T03:19:49.001Z,986.71
2018-03-19T03:20:49.008Z,986.69
2018-03-19T03:21:48.946Z,986.73
2018-03-19T03:22:48.931Z,986.70
2018-03-19T03:23:48.896Z,986.75
2018-03-19T03:24:48.880Z,986.74
2018-03-19T03:25:48.856Z,986.77
2018-03-19T03:26:48.815Z,986.73
2018-03-19T03:27:48.781Z,986.72
2018-03-19T03:28:48.760Z,986.78
2018-03-19T03:29:48.728Z,986.77
2018-03-19T03:30:48.701Z,986.72
2018-03-19T03:31:48.674Z,986.76
2018-03-19T03:32:48.647Z,986.72
2018-03-19T03:33:48.610Z,986.74
2018-03-19T03:34:48.611Z,986.77
2018-03-19T03:35:48.562Z,986.80
2018-03-19T03:36:48.548Z,986.81
2018-03-19T03:37:48.526Z,986.81
2018-03-19T03:38:48.483Z,986.79
2018-03-19T03:39:48.444Z,986.84
2018-03-19T03:40:48.420Z,986.79
2018-03-19T03:41:48.392Z,986.83
2018-03-19T03:42:48.383Z,986.85
2018-03-19T03:43:48.364Z,986.82
2018-03-19T03:44:48.322Z,986.81
2018-03-19T03:45:48.279Z,986.77
2018-03-19T03:46:48.266Z,986.74
2018-03-19T03:47:48.220Z,986.78
2018-03-19T03:48:48.203Z,986.76
2018-03-19T03:49:48.180Z,986.75
2018-03-19T03:50:48.151Z,986.73
2018-03-19T03:51:48.127Z,986.74
2018-03-19T03:52:48.121Z,986.75
2018-03-19T03:53:48.087Z,986.76
2018-03-19T03:54:48.020Z,986.74
2018-03-19T03:55:48.053Z,986.69
2018-03-19T03:56:47.988Z,986.76
2018-03-19T03:57:47.978Z,986.77
2018-03-19T03:58:47.996Z,986.76
2018-03-19T03:59:47.892Z,986.74
2018-03-19T04:00:47.877Z,986.76
2018-03-19T04:01:47.839Z,986.77
2018-03-19T04:02:47.815Z,986.79
2018-03-19T04:03:47.781Z,986.79
2018-03-19T04:04:47.757Z,986.79
2018-03-19T04:05:47.731Z,986.80
2018-03-19T04:06:47.712Z,986.80
2018-03-19T04:07:47.679Z,986.81
2018-03-19T04:08:47.697Z,986.81
2018-03-19T04:09:47.609Z,986.83
2018-03-19T04:10:47.598Z,986.84
2018-03-19T04:11:47.567Z,986.84
2018-03-19T04:12:47.536Z,986.84
2018-03-19T04:13:47.506Z,986.83
2018-03-19T04:14:47.479Z,986.88
2018-03-19T04:15:47.465Z,986.89
2018-03-19T04:16:47.436Z,986.89
2018-03-19T04:17:47.483Z,986.96
2018-03-19T04:18:47.362Z,986.90
2018-03-19T04:19:47.336Z,986.98
2018-03-19T04:20:47.304Z,986.94
2018-03-19T04:21:47.320Z,986.94
2018-03-19T04:22:47.300Z,987.01
2018-03-19T04:23:47.228Z,986.97
2018-03-19T04:24:47.204Z,987.02
2018-03-19T04:25:47.221Z,987.01
2018-03-19T04:26:47.157Z,986.98
2018-03-19T04:27:47.230Z,987.01
2018-03-19T04:28:47.089Z,986.99
2018-03-19T04:29:47.100Z,987.01
2018-03-19T04:30:47.046Z,986.95
2018-03-19T04:31:47.004Z,987.03
2018-03-19T04:32:46.974Z,986.97
2018-03-19T04:33:46.947Z,986.96
2018-03-19T04:34:46.967Z,986.98
2018-03-19T04:35:46.890Z,986.96
2018-03-19T04:36:46.873Z,986.95
2018-03-19T04:37:46.834Z,986.91
2018-03-19T04:38:46.821Z,986.97
2018-03-19T04:39:46.814Z,986.93
2018-03-19T04:40:46.766Z,986.93
2018-03-19T04:41:46.752Z,986.93
2018-03-19T04:42:46.731Z,986.91
2018-03-19T04:43:46.719Z,986.91
2018-03-19T04:44:46.643Z,986.88
2018-03-19T04:45:46.626Z,986.86
2018-03-19T04:46:46.581Z,986.92
2018-03-19T04:47:46.551Z,986.90
2018-03-19T04:48:46.556Z,986.88
2018-03-19T04:49:46.524Z,986.90
2018-03-19T04:50:46.472Z,986.85
2018-03-19T04:51:46.451Z,986.90
2018-03-19T04:52:46.440Z,986.89
2018-03-19T04:53:46.386Z,986.89
2018-03-19T04:54:46.404Z,986.81
2018-03-19T04:55:46.343Z,986.88
2018-03-19T04:56:46.304Z,986.88
2018-03-19T04:57:46.335Z,986.86
2018-03-19T04:58:47.293Z,986.87
2018-03-19T04:59:47.088Z,986.85
2018-03-19T05:00:46.201Z,986.90
2018-03-19T05:01:46.491Z,986.86
2018-03-19T05:02:46.137Z,986.92
2018-03-19T05:03:46.148Z,986.90
2018-03-19T05:04:46.084Z,986.92
2018-03-19T05:05:46.063Z,986.91
2018-03-19T05:06:46.045Z,986.91
2018-03-19T05:07:45.986Z,986.92
2018-03-19T05:08:46.024Z,986.91
2018-03-19T05:09:45.954Z,986.92
2018-03-19T05:10:45.995Z,986.87
2018-03-19T05:11:45.917Z,986.91
2018-03-19T05:12:45.903Z,986.94
2018-03-19T05:13:45.843Z,986.92
2018-03-19T05:14:45.797Z,986.96
2018-03-19T05:15:45.770Z,986.96
2018-03-19T05:16:45.763Z,986.98
2018-03-19T05:17:45.766Z,986.97
2018-03-19T05:18:45.694Z,986.99
2018-03-19T05:19:45.665Z,987.05
2018-03-19T05:20:45.663Z,987.05
2018-03-19T05:21:45.625Z,987.07
2018-03-19T05:22:45.568Z,987.07
2018-03-19T05:23:45.565Z,987.04
2018-03-19T05:24:45.583Z,987.10
2018-03-19T05:25:45.509Z,987.09
2018-03-19T05:26:45.497Z,987.14
2018-03-19T05:27:45.437Z,987.13
2018-03-19T05:28:45.402Z,987.16
2018-03-19T05:29:45.380Z,987.20
2018-03-19T05:30:45.351Z,987.19
2018-03-19T05:31:45.325Z,987.20
2018-03-19T05:32:45.311Z,987.20
2018-03-19T05:33:45.266Z,987.24
2018-03-19T05:34:45.263Z,987.25
2018-03-19T05:35:45.215Z,987.29
2018-03-19T05:36:45.206Z,987.28
2018-03-19T05:37:45.138Z,987.29
2018-03-19T05:38:45.148Z,987.28
2018-03-19T05:39:45.116Z,987.34
2018-03-19T05:40:45.068Z,987.28
2018-03-19T05:41:45.044Z,987.32
2018-03-19T05:42:45.014Z,987.33
2018-03-19T05:43:44.989Z,987.31
2018-03-19T05:44:44.976Z,987.34
2018-03-19T05:45:44.950Z,987.36
2018-03-19T05:46:44.903Z,987.44
2018-03-19T05:47:44.923Z,987.41
2018-03-19T05:48:44.841Z,987.36
2018-03-19T05:49:44.894Z,987.38
2018-03-19T05:50:44.803Z,987.41
2018-03-19T05:51:44.778Z,987.42
2018-03-19T05:52:44.747Z,987.46
2018-03-19T05:53:44.742Z,987.41
2018-03-19T05:54:44.707Z,987.45
2018-03-19T05:55:44.649Z,987.42
2018-03-19T05:56:44.699Z,987.47
2018-03-19T05:57:44.600Z,987.49
2018-03-19T05:58:44.561Z,987.46
2018-03-19T05:59:44.532Z,987.46
2018-03-19T06:00:44.499Z,987.49
2018-03-19T06:01:44.507Z,987.49
2018-03-19T06:02:44.444Z,987.51
2018-03-19T06:03:44.423Z,987.58
2018-03-19T06:04:44.410Z,987.52
2018-03-19T06:05:44.394Z,987.51
2018-03-19T06:06:44.346Z,987.51
2018-03-19T06:07:44.318Z,987.56
2018-03-19T06:08:44.290Z,987.50
2018-03-19T06:09:44.256Z,987.53
2018-03-19T06:10:44.326Z,987.52
2018-03-19T06:11:44.696Z,987.52
2018-03-19T06:12:44.307Z,987.53
2018-03-19T06:13:44.154Z,987.54
2018-03-19T06:14:44.135Z,987.50
2018-03-19T06:15:44.120Z,987.56
2018-03-19T06:16:44.089Z,987.59
2018-03-19T06:17:44.062Z,987.54
2018-03-19T06:18:44.019Z,987.57
2018-03-19T06:19:43.990Z,987.59
2018-03-19T06:20:43.947Z,987.58
2018-03-19T06:21:43.928Z,987.59
2018-03-19T06:22:43.904Z,987.63
2018-03-19T06:23:43.865Z,987.62
2018-03-19T06:24:43.839Z,987.69
2018-03-19T06:25:43.861Z,987.65
2018-03-19T06:26:43.826Z,987.58
2018-03-19T06:27:43.800Z,987.60
2018-03-19T06:28:43.728Z,987.64
2018-03-19T06:29:43.695Z,987.63
2018-03-19T06:30:43.699Z,987.56
2018-03-19T06:31:43.647Z,987.61
2018-03-19T06:32:43.640Z,987.62
2018-03-19T06:33:43.608Z,987.68
2018-03-19T06:34:43.571Z,987.67
2018-03-19T06:35:43.536Z,987.67
2018-03-19T06:36:43.560Z,987.66
2018-03-19T06:37:43.498Z,987.69
2018-03-19T06:38:43.487Z,987.65
2018-03-19T06:39:43.480Z,987.64
2018-03-19T06:40:43.428Z,987.66
2018-03-19T06:41:43.391Z,987.66
2018-03-19T06:42:43.344Z,987.62
2018-03-19T06:43:43.329Z,987.69
2018-03-19T06:44:43.293Z,987.66
2018-03-19T06:45:43.259Z,987.66
2018-03-19T06:46:43.255Z,987.64
2018-03-19T06:47:43.206Z,987.65
2018-03-19T06:48:43.202Z,987.72
2018-03-19T06:49:43.192Z,987.71
2018-03-19T06:50:43.126Z,987.68
2018-03-19T06:51:43.110Z,987.72
2018-03-19T06:52:43.092Z,987.71
2018-03-19T06:53:43.054Z,987.71
2018-03-19T06:54:43.020Z,987.73
2018-03-19T06:55:43.000Z,987.75
2018-03-19T06:56:42.968Z,987.73
2018-03-19T06:57:42.976Z,987.75
2018-03-19T06:58:42.943Z,987.81
2018-03-19T06:59:42.891Z,987.77
2018-03-19T07:00:42.872Z,987.79
2018-03-19T07:01:42.851Z,987.75
2018-03-19T07:02:43.758Z,987.77
2018-03-19T07:03:42.783Z,987.75
2018-03-19T07:04:42.768Z,987.77
2018-03-19T07:05:42.745Z,987.79
2018-03-19T07:06:42.689Z,987.74
2018-03-19T07:07:42.692Z,987.80
2018-03-19T07:08:42.657Z,987.81
2018-03-19T07:09:42.644Z,987.83
2018-03-19T07:10:42.622Z,987.89
2018-03-19T07:11:42.578Z,987.85
2018-03-19T07:12:42.555Z,987.88
2018-03-19T07:13:42.513Z,987.85
2018-03-19T07:14:42.540Z,987.85
2018-03-19T07:15:42.501Z,987.89
2018-03-19T07:16:42.477Z,987.95
2018-03-19T07:17:42.403Z,987.92
2018-03-19T07:18:42.416Z,988.02
2018-03-19T07:19:42.366Z,987.93
2018-03-19T07:20:42.359Z,987.94
2018-03-19T07:21:42.307Z,987.96
2018-03-19T07:22:42.269Z,987.99
2018-03-19T07:23:42.253Z,988.01
2018-03-19T07:24:42.246Z,987.94
2018-03-19T07:25:42.194Z,988.00
2018-03-19T07:26:42.164Z,987.96
2018-03-19T07:27:42.148Z,987.94
2018-03-19T07:28:42.164Z,987.94
2018-03-19T07:29:42.110Z,987.95
2018-03-19T07:30:42.093Z,987.98
2018-03-19T07:31:42.782Z,987.99
2018-03-19T07:32:42.020Z,987.96
2018-03-19T07:33:41.997Z,988.00
2018-03-19T07:34:41.978Z,988.01
2018-03-19T07:35:41.994Z,988.05
2018-03-19T07:36:41.911Z,988.04
2018-03-19T07:37:41.887Z,988.01
2018-03-19T07:38:41.891Z,988.08
2018-03-19T07:39:41.850Z,988.09
2018-03-19T07:40:41.805Z,988.06
2018-03-19T07:41:41.791Z,988.06
2018-03-19T07:42:42.256Z,988.07
2018-03-19T07:43:41.742Z,988.03
2018-03-19T07:44:41.704Z,988.07
2018-03-19T07:45:41.720Z,988.08
2018-03-19T07:46:41.666Z,988.06
2018-03-19T07:47:41.658Z,988.08
2018-03-19T07:48:41.601Z,988.02
2018-03-19T07:49:41.594Z,988.08
2018-03-19T07:50:41.552Z,988.09
2018-03-19T07:51:41.547Z,988.08
2018-03-19T07:52:41.506Z,988.08
2018-03-19T07:53:41.516Z,988.12
2018-03-19T07:54:41.457Z,988.10
2018-03-19T07:55:41.466Z,988.10
2018-03-19T07:56:41.424Z,988.07
2018-03-19T07:57:41.398Z,988.13
2018-03-19T07:58:41.343Z,988.07
2018-03-19T07:59:41.313Z,988.11
2018-03-19T08:00:41.307Z,988.12
2018-03-19T08:01:41.276Z,988.12
2018-03-19T08:02:41.235Z,988.24
2018-03-19T08:03:41.215Z,988.25
2018-03-19T08:04:41.180Z,988.21
2018-03-19T08:05:41.184Z,988.25
2018-03-19T08:06:41.162Z,988.22
2018-03-19T08:07:41.211Z,988.26
2018-03-19T08:08:41.115Z,988.23
2018-03-19T08:09:41.063Z,988.27
2018-03-19T08:10:41.030Z,988.30
2018-03-19T08:11:41.021Z,988.29
2018-03-19T08:12:40.993Z,988.29
2018-03-19T08:13:40.997Z,988.32
2018-03-19T08:14:40.959Z,988.28
2018-03-19T08:15:40.918Z,988.32
2018-03-19T08:16:40.893Z,988.26
2018-03-19T08:17:40.866Z,988.27
2018-03-19T08:18:40.890Z,988.24
2018-03-19T08:19:40.823Z,988.27
2018-03-19T08:20:40.786Z,988.32
2018-03-19T08:21:40.768Z,988.24
2018-03-19T08:22:40.767Z,988.25
2018-03-19T08:23:40.727Z,988.29
2018-03-19T08:24:40.730Z,988.27
2018-03-19T08:25:40.671Z,988.29
2018-03-19T08:26:40.660Z,988.24
2018-03-19T08:27:40.698Z,988.25
2018-03-19T08:28:40.610Z,988.26
2018-03-19T08:29:40.592Z,988.30
2018-03-19T08:30:40.686Z,988.30
2018-03-19T08:31:40.551Z,988.29
2018-03-19T08:32:40.514Z,988.25
2018-03-19T08:33:40.497Z,988.27
2018-03-19T08:34:40.485Z,988.29
2018-03-19T08:35:40.456Z,988.30
2018-03-19T08:36:40.577Z,988.29
2018-03-19T08:37:40.432Z,988.30
2018-03-19T08:38:40.394Z,988.37
2018-03-19T08:39:40.374Z,988.35
2018-03-19T08:40:40.348Z,988.38
2018-03-19T08:41:40.314Z,988.41
2018-03-19T08:42:40.300Z,988.36
2018-03-19T08:43:40.366Z,988.38
2018-03-19T08:44:40.280Z,988.38
2018-03-19T08:45:40.251Z,988.40
2018-03-19T08:46:40.266Z,988.41
2018-03-19T08:47:40.236Z,988.30
2018-03-19T08:48:40.170Z,988.32
2018-03-19T08:49:40.170Z,988.32
2018-03-19T08:50:40.135Z,988.36
2018-03-19T08:51:40.134Z,988.39
2018-03-19T08:52:40.102Z,988.42
2018-03-19T08:53:40.074Z,988.34
2018-03-19T08:54:40.048Z,988.31
2018-03-19T08:55:40.061Z,988.29
2018-03-19T08:56:40.048Z,988.44
2018-03-19T08:57:40.003Z,988.51
2018-03-19T08:58:39.976Z,988.49
2018-03-19T08:59:39.995Z,988.43
2018-03-19T09:00:39.938Z,988.40
2018-03-19T09:01:39.933Z,988.38
2018-03-19T09:02:39.915Z,988.28
2018-03-19T09:03:39.898Z,988.27
2018-03-19T09:04:39.863Z,988.21
2018-03-19T09:05:39.841Z,988.30
2018-03-19T09:06:39.825Z,988.32
2018-03-19T09:07:39.832Z,988.39
2018-03-19T09:08:39.866Z,988.35
2018-03-19T09:09:39.769Z,988.38
2018-03-19T09:10:39.753Z,988.40
2018-03-19T09:11:39.752Z,988.42
2018-03-19T09:12:39.763Z,988.36
2018-03-19T09:13:39.697Z,988.40
2018-03-19T09:14:39.675Z,988.42
2018-03-19T09:15:39.653Z,988.43
2018-03-19T09:16:39.646Z,988.36
2018-03-19T09:17:39.631Z,988.37
2018-03-19T09:18:39.605Z,988.37
2018-03-19T09:19:39.595Z,988.36
2018-03-19T09:20:39.585Z,988.43
2018-03-19T09:21:39.564Z,988.38
2018-03-19T09:22:39.542Z,988.38
2018-03-19T09:23:39.522Z,988.36
2018-03-19T09:24:39.542Z,988.39
2018-03-19T09:25:39.489Z,988.41
2018-03-19T09:26:39.522Z,988.37
2018-03-19T09:27:39.469Z,988.37
2018-03-19T09:28:39.520Z,988.38
2018-03-19T09:29:39.437Z,988.42
2018-03-19T09:30:39.413Z,988.41
2018-03-19T09:31:39.415Z,988.42
2018-03-19T09:32:39.456Z,988.34
2018-03-19T09:33:39.371Z,988.36
2018-03-19T09:34:39.352Z,988.38
2018-03-19T09:35:39.353Z,988.41
2018-03-19T09:36:39.366Z,988.43
2018-03-19T09:37:39.337Z,988.50
2018-03-19T09:38:39.309Z,988.54
2018-03-19T09:39:39.375Z,988.54
2018-03-19T09:40:39.269Z,988.50
2018-03-19T09:41:39.303Z,988.56
2018-03-19T09:42:39.285Z,988.48
2018-03-19T09:43:39.229Z,988.47
2018-03-19T09:44:39.214Z,988.52
2018-03-19T09:45:39.248Z,988.56
2018-03-19T09:46:39.191Z,988.63
2018-03-19T09:47:39.191Z,988.73
2018-03-19T09:48:39.159Z,988.62
2018-03-19T09:49:39.148Z,988.56
2018-03-19T09:50:39.147Z,988.61
2018-03-19T09:51:39.149Z,988.55
2018-03-19T09:52:39.128Z,988.56
2018-03-19T09:53:39.157Z,988.53
2018-03-19T09:54:39.160Z,988.47
2018-03-19T09:55:39.065Z,988.45
2018-03-19T09:56:39.066Z,988.41
2018-03-19T09:57:39.060Z,988.49
2018-03-19T09:58:39.031Z,988.52
2018-03-19T09:59:39.022Z,988.42
2018-03-19T10:00:38.993Z,988.35
2018-03-19T10:01:39.060Z,988.51
2018-03-19T10:02:38.986Z,988.53
2018-03-19T10:03:38.967Z,988.64
2018-03-19T10:04:38.933Z,988.57
2018-03-19T10:05:38.931Z,988.57
2018-03-19T10:06:38.922Z,988.56
2018-03-19T10:07:38.902Z,988.61
2018-03-19T10:08:38.917Z,988.62
2018-03-19T10:09:38.920Z,988.55
2018-03-19T10:10:38.899Z,988.57
2018-03-19T10:11:38.863Z,988.59
2018-03-19T10:12:38.837Z,988.62
2018-03-19T10:13:38.828Z,988.59
2018-03-19T10:14:48.782Z,988.59
2018-03-19T10:16:35.497Z,988.64
2018-03-19T10:17:50.435Z,988.66
2018-03-19T10:18:34.178Z,988.63
2018-03-19T10:19:39.182Z,988.61
2018-03-19T10:20:45.055Z,988.62
2018-03-19T10:21:39.766Z,988.58
2018-03-19T10:24:34.579Z,988.61
2018-03-19T10:25:33.630Z,988.70
2018-03-19T10:26:34.558Z,988.67
2018-03-19T10:30:05.566Z,988.58
2018-03-19T10:31:05.336Z,988.56
2018-03-19T10:32:05.256Z,988.61
2018-03-19T10:33:05.259Z,988.59
2018-03-19T10:34:05.462Z,988.54
2018-03-19T10:35:05.189Z,988.62
2018-03-19T10:36:05.156Z,988.65
2018-03-19T10:37:05.137Z,988.64
2018-03-19T10:38:05.126Z,988.56
2018-03-19T10:39:05.151Z,988.62
2018-03-19T10:40:05.120Z,988.60
2018-03-19T10:41:05.118Z,988.60
2018-03-19T10:42:05.086Z,988.66
2018-03-19T10:43:05.126Z,988.64
2018-03-19T10:44:05.051Z,988.67
2018-03-19T10:45:05.051Z,988.70
2018-03-19T10:46:05.088Z,988.74
2018-03-19T10:47:05.035Z,988.63
2018-03-19T10:48:05.040Z,988.70
2018-03-19T10:49:04.999Z,988.73
2018-03-19T10:50:04.984Z,988.70
2018-03-19T10:51:04.985Z,988.66
2018-03-19T10:52:04.978Z,988.70
2018-03-19T10:53:04.949Z,988.71
2018-03-19T10:54:04.948Z,988.78
2018-03-19T10:55:04.989Z,988.74
2018-03-19T10:56:04.942Z,988.78
2018-03-19T10:57:04.910Z,988.74
2018-03-19T10:58:04.932Z,988.75
2018-03-19T10:59:04.880Z,988.83
2018-03-19T11:00:04.879Z,988.84
2018-03-19T11:01:05.208Z,988.89
2018-03-19T11:02:06.056Z,988.94
2018-03-19T11:03:04.850Z,988.86
2018-03-19T11:04:04.827Z,988.90
2018-03-19T11:05:05.188Z,988.81
2018-03-19T11:06:04.850Z,988.78
2018-03-19T11:07:04.846Z,988.83
2018-03-19T11:08:04.827Z,988.88
2018-03-19T11:09:04.828Z,988.86
2018-03-19T11:10:04.769Z,988.87
2018-03-19T11:11:04.814Z,988.89
2018-03-19T11:12:04.852Z,988.88
2018-03-19T11:13:04.753Z,988.88
2018-03-19T11:14:04.747Z,988.86
2018-03-19T11:15:04.741Z,988.82
2018-03-19T11:16:04.756Z,988.80
2018-03-19T11:17:04.764Z,988.83
2018-03-19T11:18:04.733Z,988.86
2018-03-19T11:19:04.735Z,988.74
2018-03-19T11:20:04.725Z,988.90
2018-03-19T11:21:04.702Z,988.85
2018-03-19T11:22:04.688Z,988.85
2018-03-19T11:23:04.689Z,988.88
2018-03-19T11:24:04.653Z,988.76
2018-03-19T11:25:04.645Z,988.66
2018-03-19T11:26:04.654Z,988.67
2018-03-19T11:27:04.624Z,988.74
2018-03-19T11:28:04.878Z,988.79
2018-03-19T11:29:04.628Z,988.78
2018-03-19T11:30:04.612Z,988.84
2018-03-19T11:31:04.637Z,988.80
2018-03-19T11:32:04.591Z,988.78
2018-03-19T11:33:04.585Z,988.85
2018-03-19T11:34:04.580Z,988.78
2018-03-19T11:35:04.595Z,988.56
2018-03-19T11:36:04.579Z,988.59
2018-03-19T11:37:04.558Z,988.50
2018-03-19T11:38:04.544Z,988.74
2018-03-19T11:39:04.592Z,988.59
2018-03-19T11:40:04.532Z,988.62
2018-03-19T11:41:04.536Z,988.65
2018-03-19T11:42:04.522Z,988.44
2018-03-19T11:43:04.503Z,988.47
2018-03-19T11:44:04.500Z,988.65
2018-03-19T11:45:04.546Z,988.77
2018-03-19T11:46:04.483Z,988.64
2018-03-19T11:47:04.490Z,988.68
2018-03-19T11:48:04.464Z,988.69
2018-03-19T11:49:04.458Z,988.69
2018-03-19T11:50:04.453Z,988.72
2018-03-19T11:51:04.445Z,988.73
2018-03-19T11:52:04.432Z,988.78
2018-03-19T11:53:04.424Z,988.69
2018-03-19T11:54:04.500Z,988.62
2018-03-19T11:55:04.408Z,988.63
2018-03-19T11:56:04.440Z,988.67
2018-03-19T11:57:04.412Z,988.67
2018-03-19T11:58:04.424Z,988.66
2018-03-19T11:59:04.376Z,988.72
2018-03-19T12:00:04.370Z,988.73
2018-03-19T12:01:04.376Z,988.79
2018-03-19T12:02:04.355Z,988.70
2018-03-19T12:03:04.351Z,988.72
2018-03-19T12:04:04.352Z,988.76
2018-03-19T12:05:04.326Z,988.72
2018-03-19T12:06:04.332Z,988.70
2018-03-19T12:07:04.359Z,988.74
2018-03-19T12:08:04.320Z,988.74
2018-03-19T12:09:04.297Z,988.77
2018-03-19T12:10:04.293Z,988.79
2018-03-19T12:11:04.286Z,988.74
2018-03-19T12:12:04.273Z,988.74
2018-03-19T12:13:04.261Z,988.74
2018-03-19T12:14:04.295Z,988.74
2018-03-19T12:15:04.269Z,988.71
2018-03-19T12:16:04.235Z,988.72
2018-03-19T12:17:04.245Z,988.67
2018-03-19T12:18:04.230Z,988.66
2018-03-19T12:19:04.227Z,988.70
2018-03-19T12:20:04.224Z,988.64
2018-03-19T12:21:04.215Z,988.60
2018-03-19T12:22:04.211Z,988.65
2018-03-19T12:23:04.212Z,988.57
2018-03-19T12:24:04.182Z,988.55
2018-03-19T12:25:04.203Z,988.54
2018-03-19T12:26:04.181Z,988.56
2018-03-19T12:27:04.219Z,988.56
2018-03-19T12:28:04.154Z,988.53
2018-03-19T12:29:04.158Z,988.53
2018-03-19T12:30:04.144Z,988.52
2018-03-19T12:31:04.142Z,988.54
2018-03-19T12:32:04.137Z,988.52
2018-03-19T12:33:04.144Z,988.51
2018-03-19T12:34:04.128Z,988.49